createdAt,value
2022-10-06T00:00:14.665Z,15.74
2022-10-06T00:02:41.336Z,15.48
2022-10-06T00:05:08.084Z,15.65
2022-10-06T00:07:36.120Z,15.93
2022-10-06T00:10:03.613Z,15.42
2022-10-06T00:12:30.630Z,15.64
2022-10-06T00:14:57.268Z,15.99
2022-10-06T00:17:23.931Z,15.68
2022-10-06T00:19:50.611Z,15.40
2022-10-06T00:22:17.187Z,16.15
2022-10-06T00:24:44.014Z,15.75
2022-10-06T00:27:10.751Z,15.63
2022-10-06T00:29:37.370Z,15.52
2022-10-06T00:32:03.938Z,14.90
2022-10-06T00:34:30.591Z,14.90
2022-10-06T00:36:57.331Z,14.94
2022-10-06T00:39:24.600Z,15.04
2022-10-06T00:41:51.216Z,15.22
2022-10-06T00:44:17.874Z,15.30
2022-10-06T00:46:53.694Z,14.81
2022-10-06T00:49:31.103Z,14.60
2022-10-06T00:52:02.098Z,14.79
2022-10-06T00:54:28.956Z,14.93
2022-10-06T00:56:55.799Z,15.01
2022-10-06T00:59:22.496Z,15.09
2022-10-06T01:02:00.714Z,14.87
2022-10-06T01:04:31.186Z,14.93
2022-10-06T01:06:59.493Z,14.94
2022-10-06T01:09:28.265Z,14.85
2022-10-06T01:12:00.126Z,14.87
2022-10-06T01:14:29.151Z,15.08
2022-10-06T01:17:02.278Z,14.97
2022-10-06T01:19:55.650Z,14.99
2022-10-06T01:22:31.410Z,14.93
2022-10-06T01:24:58.632Z,14.77
2022-10-06T01:27:27.611Z,14.93
2022-10-06T01:29:55.814Z,14.89
2022-10-06T01:32:24.760Z,14.64
2022-10-06T01:34:53.524Z,14.59
2022-10-06T01:37:21.374Z,14.91
2022-10-06T01:39:48.082Z,14.72
2022-10-06T01:42:14.887Z,14.70
2022-10-06T01:44:41.660Z,14.70
2022-10-06T01:47:08.745Z,14.62
2022-10-06T01:49:35.417Z,14.60
2022-10-06T01:52:03.141Z,14.46
2022-10-06T01:54:29.821Z,14.39
2022-10-06T01:56:56.523Z,14.08
2022-10-06T01:59:24.615Z,13.66
2022-10-06T02:01:52.237Z,13.79
2022-10-06T02:04:20.584Z,13.93
2022-10-06T02:06:47.527Z,14.26
2022-10-06T02:09:14.162Z,14.12
2022-10-06T02:11:42.521Z,14.29
2022-10-06T02:14:09.148Z,14.27
2022-10-06T02:16:36.308Z,14.02
2022-10-06T02:19:03.022Z,13.98
2022-10-06T02:21:29.645Z,14.07
2022-10-06T02:23:57.137Z,14.11
2022-10-06T02:26:24.353Z,13.93
2022-10-06T02:28:51.579Z,13.85
2022-10-06T02:31:22.613Z,13.96
2022-10-06T02:33:49.421Z,13.94
2022-10-06T02:36:18.107Z,13.84
2022-10-06T02:38:44.849Z,13.84
2022-10-06T02:41:11.867Z,13.38
2022-10-06T02:43:39.101Z,13.60
2022-10-06T02:46:13.746Z,13.71
2022-10-06T02:48:48.145Z,13.86
2022-10-06T02:51:17.854Z,13.60
2022-10-06T02:53:47.443Z,13.42
2022-10-06T02:56:16.936Z,13.78
2022-10-06T02:58:44.813Z,13.84
2022-10-06T03:01:19.071Z,13.94
2022-10-06T03:03:49.282Z,13.45
2022-10-06T03:06:23.524Z,13.15
2022-10-06T03:09:00.657Z,13.45
2022-10-06T03:11:31.127Z,13.22
2022-10-06T03:13:58.844Z,13.34
2022-10-06T03:16:27.540Z,13.56
2022-10-06T03:18:57.631Z,13.34
2022-10-06T03:21:27.517Z,13.09
2022-10-06T03:23:54.923Z,13.27
2022-10-06T03:26:27.750Z,12.87
2022-10-06T03:28:55.268Z,13.07
2022-10-06T03:31:22.696Z,12.88
2022-10-06T03:33:50.851Z,13.27
2022-10-06T03:36:23.526Z,12.91
2022-10-06T03:38:50.643Z,12.99
2022-10-06T03:41:22.474Z,12.85
2022-10-06T03:43:50.863Z,12.98
2022-10-06T03:46:20.859Z,12.83
2022-10-06T03:48:49.411Z,12.69
2022-10-06T03:51:23.466Z,12.73
2022-10-06T03:53:52.001Z,12.60
2022-10-06T03:56:24.830Z,12.57
2022-10-06T03:59:00.689Z,12.41
2022-10-06T04:01:34.941Z,12.54
2022-10-06T04:04:07.229Z,12.63
2022-10-06T04:06:36.358Z,12.42
2022-10-06T04:09:09.270Z,12.69
2022-10-06T04:11:40.252Z,12.28
2022-10-06T04:14:10.450Z,12.46
2022-10-06T04:16:40.404Z,12.29
2022-10-06T04:19:10.562Z,12.67
2022-10-06T04:21:41.898Z,12.42
2022-10-06T04:24:11.444Z,12.52
2022-10-06T04:26:45.072Z,12.46
2022-10-06T04:29:15.114Z,12.64
2022-10-06T04:31:43.879Z,12.37
2022-10-06T04:34:17.171Z,12.29
2022-10-06T04:36:45.482Z,12.27
2022-10-06T04:39:16.058Z,12.31
2022-10-06T04:41:47.155Z,12.35
2022-10-06T04:44:19.278Z,12.58
2022-10-06T04:46:46.968Z,12.53
2022-10-06T04:49:21.637Z,12.48
2022-10-06T04:51:51.614Z,12.45
2022-10-06T04:54:19.338Z,12.34
2022-10-06T04:56:48.425Z,12.19
2022-10-06T04:59:17.019Z,12.21
2022-10-06T05:01:44.973Z,12.37
2022-10-06T05:04:13.640Z,12.26
2022-10-06T05:06:42.342Z,12.37
2022-10-06T05:09:13.396Z,12.24
2022-10-06T05:11:46.096Z,12.25
2022-10-06T05:14:15.817Z,12.32
2022-10-06T05:16:45.689Z,12.32
2022-10-06T05:19:15.954Z,12.33
2022-10-06T05:21:42.868Z,12.36
2022-10-06T05:24:13.181Z,12.23
2022-10-06T05:26:40.011Z,12.28
2022-10-06T05:29:10.130Z,12.27
2022-10-06T05:31:43.047Z,12.33
2022-10-06T05:34:10.343Z,12.29
2022-10-06T05:36:37.725Z,12.49
2022-10-06T05:39:06.162Z,12.64
2022-10-06T05:41:45.703Z,12.51
2022-10-06T05:44:13.890Z,12.40
2022-10-06T05:46:42.482Z,12.40
2022-10-06T05:49:10.414Z,12.29
2022-10-06T05:51:49.471Z,12.24
2022-10-06T05:54:28.869Z,12.24
2022-10-06T05:56:55.643Z,12.34
2022-10-06T05:59:23.743Z,12.49
2022-10-06T06:01:53.140Z,12.42
2022-10-06T06:04:27.673Z,12.28
2022-10-06T06:06:56.390Z,12.24
2022-10-06T06:09:26.137Z,12.39
2022-10-06T06:11:54.544Z,12.27
2022-10-06T06:15:06.244Z,12.44
2022-10-06T06:17:38.482Z,12.49
2022-10-06T06:20:06.098Z,12.61
2022-10-06T06:22:32.730Z,12.30
2022-10-06T06:24:59.420Z,12.64
2022-10-06T06:27:26.279Z,12.54
2022-10-06T06:29:53.341Z,12.86
2022-10-06T06:32:20.061Z,12.36
2022-10-06T06:34:46.811Z,12.40
2022-10-06T06:37:15.396Z,12.65
2022-10-06T06:39:45.555Z,12.76
2022-10-06T06:42:12.163Z,12.72
2022-10-06T06:44:39.457Z,12.82
2022-10-06T06:47:19.868Z,12.75
2022-10-06T06:49:47.699Z,12.71
2022-10-06T06:52:14.666Z,12.48
2022-10-06T06:54:41.899Z,12.84
2022-10-06T06:57:12.292Z,12.71
2022-10-06T06:59:39.222Z,12.90
2022-10-06T07:02:10.189Z,13.03
2022-10-06T07:04:38.861Z,12.65
2022-10-06T07:07:08.176Z,12.51
2022-10-06T07:09:36.809Z,12.63
2022-10-06T07:12:13.349Z,13.20
2022-10-06T07:15:04.551Z,13.05
2022-10-06T07:17:55.703Z,12.91
2022-10-06T07:20:41.596Z,13.25
2022-10-06T07:23:34.319Z,13.64
2022-10-06T07:26:01.554Z,13.03
2022-10-06T07:28:31.844Z,13.11
2022-10-06T07:31:01.449Z,13.12
2022-10-06T07:33:32.406Z,13.45
2022-10-06T07:36:02.691Z,13.11
2022-10-06T07:38:30.671Z,13.23
2022-10-06T07:43:48.206Z,13.37
2022-10-06T07:46:16.472Z,12.95
2022-10-06T07:49:01.635Z,12.91
2022-10-06T07:51:28.536Z,12.95
2022-10-06T07:53:57.216Z,13.14
2022-10-06T07:56:53.637Z,13.33
2022-10-06T07:59:20.684Z,13.33
2022-10-06T08:01:47.528Z,13.25
2022-10-06T08:04:14.246Z,13.69
2022-10-06T08:06:42.002Z,14.24
2022-10-06T08:09:08.698Z,13.44
2022-10-06T08:11:35.476Z,13.64
2022-10-06T08:14:02.363Z,13.85
2022-10-06T08:16:30.249Z,13.82
2022-10-06T08:18:59.334Z,13.43
2022-10-06T08:21:28.904Z,13.21
2022-10-06T08:23:58.087Z,13.32
2022-10-06T08:26:26.528Z,13.29
2022-10-06T08:28:57.494Z,13.21
2022-10-06T08:31:24.527Z,13.18
2022-10-06T08:33:56.035Z,13.31
2022-10-06T08:36:31.027Z,14.16
2022-10-06T08:38:58.464Z,14.01
2022-10-06T08:41:27.567Z,13.51
2022-10-06T08:44:18.057Z,14.07
2022-10-06T08:47:13.499Z,14.63
2022-10-06T08:49:44.450Z,14.52
2022-10-06T08:52:58.916Z,14.68
2022-10-06T08:55:50.127Z,14.50
2022-10-06T08:58:54.498Z,14.69
2022-10-06T09:01:27.036Z,14.44
2022-10-06T09:03:57.310Z,14.43
2022-10-06T09:06:42.630Z,14.00
2022-10-06T09:09:43.176Z,13.99
2022-10-06T09:12:37.540Z,13.84
2022-10-06T09:15:28.794Z,13.71
2022-10-06T09:18:19.150Z,14.15
2022-10-06T09:20:47.327Z,14.36
2022-10-06T09:23:17.071Z,14.64
2022-10-06T09:25:44.852Z,14.54
2022-10-06T09:28:15.851Z,14.29
2022-10-06T09:30:43.370Z,14.42
2022-10-06T09:33:19.618Z,14.52
2022-10-06T09:36:15.784Z,14.39
2022-10-06T09:38:45.730Z,13.99
2022-10-06T09:41:13.410Z,14.41
2022-10-06T09:43:53.023Z,14.66
2022-10-06T09:46:31.560Z,14.70
2022-10-06T09:49:31.608Z,14.46
2022-10-06T09:51:59.822Z,14.49
2022-10-06T09:54:28.750Z,14.50
2022-10-06T09:56:59.601Z,14.69
2022-10-06T09:59:40.111Z,14.58
2022-10-06T10:02:31.272Z,14.13
2022-10-06T10:04:58.359Z,15.00
2022-10-06T10:07:27.465Z,14.78
2022-10-06T10:10:10.024Z,14.60
2022-10-06T10:12:36.641Z,14.76
2022-10-06T10:15:25.250Z,14.84
2022-10-06T10:17:58.358Z,15.08
2022-10-06T10:20:25.025Z,15.32
2022-10-06T10:22:53.259Z,15.03
2022-10-06T10:25:44.378Z,15.05
2022-10-06T10:28:15.653Z,15.34
2022-10-06T10:31:14.826Z,15.30
2022-10-06T10:33:53.937Z,14.80
2022-10-06T10:36:38.035Z,14.79
2022-10-06T10:39:11.121Z,15.03
2022-10-06T10:41:52.707Z,15.27
2022-10-06T10:44:38.912Z,14.75
2022-10-06T10:47:17.571Z,14.94
2022-10-06T10:49:51.666Z,15.17
2022-10-06T10:52:25.816Z,15.26
2022-10-06T10:55:17.948Z,14.80
2022-10-06T10:57:46.324Z,15.20
2022-10-06T11:00:19.465Z,14.67
2022-10-06T11:02:47.629Z,14.92
2022-10-06T11:05:38.467Z,14.96
2022-10-06T11:08:32.578Z,15.02
2022-10-06T11:11:02.641Z,14.52
2022-10-06T11:13:40.750Z,14.35
2022-10-06T11:16:25.728Z,14.45
2022-10-06T11:19:22.698Z,14.67
2022-10-06T11:22:05.804Z,14.89
2022-10-06T11:24:50.745Z,14.51
2022-10-06T11:28:04.638Z,14.75
2022-10-06T11:30:38.085Z,14.62
2022-10-06T11:33:20.574Z,14.66
2022-10-06T11:35:48.961Z,14.63
2022-10-06T11:38:27.152Z,15.01
2022-10-06T11:41:18.708Z,14.84
2022-10-06T11:44:09.828Z,14.83
2022-10-06T11:46:44.742Z,15.06
2022-10-06T11:49:30.204Z,14.97
2022-10-06T11:52:17.170Z,15.27
2022-10-06T11:54:43.789Z,15.21
2022-10-06T11:57:26.253Z,15.17
2022-10-06T12:00:16.262Z,15.57
2022-10-06T12:02:45.184Z,15.78
2022-10-06T12:08:12.743Z,15.44
2022-10-06T12:10:49.365Z,15.14
2022-10-06T12:14:44.445Z,15.27
2022-10-06T12:19:38.037Z,15.63
2022-10-06T12:22:15.058Z,15.69
2022-10-06T12:25:07.695Z,15.44
2022-10-06T12:27:39.778Z,15.87
2022-10-06T12:30:18.154Z,16.43
2022-10-06T12:32:55.767Z,15.47
2022-10-06T12:35:31.728Z,15.56
2022-10-06T12:38:04.728Z,15.70
2022-10-06T12:40:51.300Z,15.82
2022-10-06T12:43:17.981Z,15.71
2022-10-06T12:45:46.288Z,15.58
2022-10-06T12:48:41.460Z,15.45
2022-10-06T12:51:26.474Z,15.42
2022-10-06T12:54:01.974Z,15.42
2022-10-06T12:56:34.966Z,15.10
2022-10-06T12:59:24.943Z,15.55
2022-10-06T13:01:58.276Z,16.18
2022-10-06T13:04:44.050Z,15.91
2022-10-06T13:07:16.381Z,15.65
2022-10-06T13:09:45.574Z,16.33
2022-10-06T13:12:27.114Z,16.04
2022-10-06T13:15:34.551Z,16.64
2022-10-06T13:18:14.143Z,18.23
2022-10-06T13:20:49.224Z,17.77
2022-10-06T13:23:28.027Z,16.78
2022-10-06T13:25:54.676Z,16.94
2022-10-06T13:28:25.778Z,17.69
2022-10-06T13:30:58.408Z,18.07
2022-10-06T13:33:29.809Z,17.59
2022-10-06T13:35:58.352Z,17.06
2022-10-06T13:38:24.982Z,16.88
2022-10-06T13:41:06.509Z,16.72
2022-10-06T13:43:39.853Z,17.19
2022-10-06T13:46:12.736Z,17.37
2022-10-06T13:49:05.782Z,16.50
2022-10-06T13:51:33.211Z,16.39
2022-10-06T13:54:06.609Z,15.87
2022-10-06T13:56:37.415Z,15.76
2022-10-06T13:59:28.400Z,15.54
2022-10-06T14:01:57.341Z,15.61
2022-10-06T14:04:23.990Z,16.02
2022-10-06T14:06:52.514Z,16.09
2022-10-06T14:09:29.555Z,16.09
2022-10-06T14:12:11.198Z,15.74
2022-10-06T14:14:38.847Z,15.77
2022-10-06T14:17:06.857Z,15.62
2022-10-06T14:19:36.603Z,15.67
2022-10-06T14:22:05.242Z,15.33
2022-10-06T14:24:34.322Z,15.27
2022-10-06T14:27:06.498Z,15.41
2022-10-06T14:29:34.252Z,15.49
2022-10-06T14:32:08.950Z,15.22
2022-10-06T14:34:35.517Z,15.41
2022-10-06T14:37:02.118Z,15.65
2022-10-06T14:39:28.718Z,15.32
2022-10-06T14:41:55.247Z,15.40
2022-10-06T14:44:22.083Z,15.13
2022-10-06T14:46:49.487Z,15.09
2022-10-06T14:49:16.428Z,15.14
2022-10-06T14:51:44.352Z,15.18
2022-10-06T14:54:11.756Z,15.10
2022-10-06T14:56:39.746Z,15.13
2022-10-06T14:59:08.969Z,15.02
2022-10-06T15:01:38.442Z,15.05
2022-10-06T15:04:08.823Z,14.92
2022-10-06T15:06:54.137Z,15.28
2022-10-06T15:09:20.789Z,15.49
2022-10-06T15:11:47.913Z,15.50
2022-10-06T15:14:14.626Z,15.11
2022-10-06T15:16:43.705Z,15.27
2022-10-06T15:19:11.870Z,15.52
2022-10-06T15:21:42.049Z,15.32
2022-10-06T15:24:12.390Z,15.02
2022-10-06T15:26:57.896Z,14.96
2022-10-06T15:29:24.677Z,15.08
2022-10-06T15:31:55.107Z,15.06
2022-10-06T15:34:25.737Z,15.24
2022-10-06T15:36:55.489Z,15.01
2022-10-06T15:39:27.848Z,14.76
2022-10-06T15:41:54.830Z,14.77
2022-10-06T15:44:21.903Z,14.72
2022-10-06T15:46:50.709Z,14.99
2022-10-06T15:49:22.232Z,15.05
2022-10-06T15:51:51.603Z,14.57
2022-10-06T15:54:20.110Z,14.96
2022-10-06T15:56:48.482Z,14.68
2022-10-06T15:59:16.457Z,14.54
2022-10-06T16:01:48.581Z,14.57
2022-10-06T16:04:23.976Z,14.58
2022-10-06T16:06:55.673Z,14.59
2022-10-06T16:09:25.248Z,14.65
2022-10-06T16:11:53.212Z,14.71
2022-10-06T16:14:19.833Z,14.61
2022-10-06T16:16:47.609Z,14.42
2022-10-06T16:19:15.474Z,14.34
2022-10-06T16:21:43.110Z,14.60
2022-10-06T16:24:10.337Z,14.37
2022-10-06T16:26:37.308Z,14.39
2022-10-06T16:29:04.975Z,14.40
2022-10-06T16:31:31.990Z,14.57
2022-10-06T16:33:58.686Z,14.52
2022-10-06T16:36:28.141Z,14.33
2022-10-06T16:38:55.014Z,14.27
2022-10-06T16:41:22.840Z,14.31
2022-10-06T16:43:51.711Z,14.19
2022-10-06T16:46:24.517Z,14.51
2022-10-06T16:48:53.829Z,14.49
2022-10-06T16:51:23.491Z,14.29
2022-10-06T16:53:55.214Z,14.10
2022-10-06T16:56:30.435Z,14.34
2022-10-06T16:59:04.735Z,14.20
2022-10-06T17:01:34.527Z,14.19
2022-10-06T17:04:08.821Z,14.27
2022-10-06T17:06:46.014Z,14.22
2022-10-06T17:09:15.374Z,14.35
2022-10-06T17:11:44.477Z,14.29
2022-10-06T17:14:12.007Z,14.19
2022-10-06T17:16:42.080Z,14.04
2022-10-06T17:19:10.855Z,14.08
2022-10-06T17:21:46.283Z,13.97
2022-10-06T17:24:14.761Z,14.05
2022-10-06T17:26:42.959Z,14.07
2022-10-06T17:29:27.824Z,14.10
2022-10-06T17:31:58.566Z,13.85
2022-10-06T17:34:31.373Z,14.02
2022-10-06T17:36:59.564Z,13.83
2022-10-06T17:39:26.110Z,13.87
2022-10-06T17:41:53.636Z,13.88
2022-10-06T17:44:23.734Z,13.89
2022-10-06T17:46:53.850Z,13.95
2022-10-06T17:49:21.761Z,13.93
2022-10-06T17:51:49.634Z,13.89
2022-10-06T17:54:19.776Z,13.83
2022-10-06T17:56:48.421Z,13.74
2022-10-06T17:59:28.488Z,13.95
2022-10-06T18:01:56.772Z,13.77
2022-10-06T18:04:24.292Z,13.94
2022-10-06T18:06:53.036Z,13.87
2022-10-06T18:09:19.950Z,13.88
2022-10-06T18:11:55.343Z,14.14
2022-10-06T18:14:24.122Z,14.10
2022-10-06T18:16:57.443Z,13.91
2022-10-06T18:19:35.407Z,13.94
2022-10-06T18:22:06.894Z,13.95
2022-10-06T18:24:33.514Z,13.76
2022-10-06T18:27:00.928Z,14.28
2022-10-06T18:29:33.410Z,14.06
2022-10-06T18:32:34.819Z,13.93
2022-10-06T18:37:35.152Z,13.82
2022-10-06T18:40:06.920Z,13.82
2022-10-06T18:42:34.339Z,13.63
2022-10-06T18:45:19.583Z,13.41
2022-10-06T18:48:04.699Z,13.38
2022-10-06T18:50:34.964Z,13.35
2022-10-06T18:53:01.752Z,13.52
2022-10-06T18:55:29.730Z,13.70
2022-10-06T18:58:03.028Z,13.59
2022-10-06T19:00:29.630Z,13.45
2022-10-06T19:02:56.898Z,13.71
2022-10-06T19:05:23.961Z,13.37
2022-10-06T19:07:56.787Z,13.37
2022-10-06T19:10:23.376Z,13.24
2022-10-06T19:12:50.295Z,13.12
2022-10-06T19:15:21.341Z,13.06
2022-10-06T19:17:49.966Z,13.25
2022-10-06T19:20:18.320Z,13.32
2022-10-06T19:22:45.334Z,13.17
2022-10-06T19:25:13.063Z,13.31
2022-10-06T19:27:39.758Z,12.99
2022-10-06T19:30:06.821Z,13.19
2022-10-06T19:32:33.601Z,13.05
2022-10-06T19:35:00.454Z,13.10
2022-10-06T19:37:35.416Z,13.32
2022-10-06T19:40:02.074Z,13.10
2022-10-06T19:42:47.537Z,13.03
2022-10-06T19:45:15.979Z,13.00
2022-10-06T19:47:42.932Z,13.10
2022-10-06T19:50:12.554Z,13.13
2022-10-06T19:52:41.146Z,13.37
2022-10-06T19:55:07.880Z,13.19
2022-10-06T19:57:34.981Z,13.26
2022-10-06T20:00:01.759Z,13.59
2022-10-06T20:02:28.943Z,13.22
2022-10-06T20:04:56.794Z,13.29
2022-10-06T20:07:27.682Z,13.63
2022-10-06T20:09:55.047Z,13.47
2022-10-06T20:12:24.876Z,13.52
2022-10-06T20:14:53.440Z,13.21
2022-10-06T20:17:20.829Z,13.14
2022-10-06T20:19:47.550Z,13.11
2022-10-06T20:22:14.169Z,13.09
2022-10-06T20:24:41.189Z,13.11
2022-10-06T20:27:07.805Z,13.39
2022-10-06T20:29:34.680Z,13.27
2022-10-06T20:32:01.366Z,13.10
2022-10-06T20:34:32.583Z,13.17
2022-10-06T20:37:02.229Z,12.92
2022-10-06T20:39:52.305Z,12.79
2022-10-06T20:42:20.121Z,12.97
2022-10-06T20:44:47.174Z,12.98
2022-10-06T20:47:16.376Z,13.20
2022-10-06T20:49:42.986Z,13.06
2022-10-06T20:52:10.170Z,12.74
2022-10-06T20:54:37.433Z,13.26
2022-10-06T20:57:05.950Z,13.08
2022-10-06T20:59:36.309Z,12.87
2022-10-06T21:02:05.066Z,13.08
2022-10-06T21:04:32.122Z,13.01
2022-10-06T21:06:59.269Z,12.51
2022-10-06T21:09:28.392Z,12.40
2022-10-06T21:11:58.421Z,12.44
2022-10-06T21:14:25.212Z,12.45
2022-10-06T21:16:54.876Z,12.55
2022-10-06T21:19:21.835Z,12.49
2022-10-06T21:21:52.376Z,12.69
2022-10-06T21:24:20.566Z,12.93
2022-10-06T21:26:47.616Z,12.37
2022-10-06T21:29:17.010Z,12.44
2022-10-06T21:31:49.090Z,12.37
2022-10-06T21:34:15.922Z,12.42
2022-10-06T21:36:45.387Z,12.44
2022-10-06T21:39:20.311Z,12.41
2022-10-06T21:41:48.975Z,12.42
2022-10-06T21:44:17.791Z,12.41
2022-10-06T21:46:52.771Z,12.20
2022-10-06T21:49:27.707Z,12.47
2022-10-06T21:51:56.275Z,12.19
2022-10-06T21:54:25.864Z,12.47
2022-10-06T21:56:53.298Z,12.49
2022-10-06T21:59:20.489Z,12.57
2022-10-06T22:01:50.237Z,12.65
2022-10-06T22:04:17.368Z,12.44
2022-10-06T22:06:45.122Z,12.55
2022-10-06T22:09:19.779Z,12.83
2022-10-06T22:11:51.090Z,12.60
2022-10-06T22:14:22.236Z,12.68
2022-10-06T22:16:52.042Z,12.61
2022-10-06T22:19:21.692Z,12.57
2022-10-06T22:21:48.578Z,13.14
2022-10-06T22:24:20.155Z,12.93
2022-10-06T22:26:47.334Z,12.91
2022-10-06T22:29:17.226Z,12.64
2022-10-06T22:31:45.880Z,12.66
2022-10-06T22:34:15.768Z,13.09
2022-10-06T22:36:42.594Z,12.58
2022-10-06T22:39:09.324Z,12.59
2022-10-06T22:41:36.196Z,12.57
2022-10-06T22:44:02.836Z,12.76
2022-10-06T22:46:32.366Z,12.88
2022-10-06T22:48:59.416Z,12.69
2022-10-06T22:51:26.084Z,12.51
2022-10-06T22:53:58.850Z,12.73
2022-10-06T22:56:31.724Z,12.61
2022-10-06T22:58:59.882Z,12.46
2022-10-06T23:01:28.018Z,12.25
2022-10-06T23:03:55.650Z,12.43
2022-10-06T23:06:22.594Z,12.54
2022-10-06T23:08:49.270Z,12.30
2022-10-06T23:11:18.817Z,12.54
2022-10-06T23:13:45.654Z,12.32
2022-10-06T23:16:14.747Z,12.36
2022-10-06T23:18:42.615Z,12.62
2022-10-06T23:21:22.016Z,12.53
2022-10-06T23:23:50.878Z,12.17
2022-10-06T23:26:18.972Z,12.21
2022-10-06T23:28:49.943Z,12.18
2022-10-06T23:31:16.591Z,12.28
2022-10-06T23:33:43.234Z,12.42
2022-10-06T23:36:12.187Z,12.30
2022-10-06T23:38:39.292Z,12.43
2022-10-06T23:41:06.939Z,12.74
2022-10-06T23:43:34.027Z,12.57
2022-10-06T23:46:01.028Z,12.63
2022-10-06T23:48:27.802Z,12.44
2022-10-06T23:51:10.263Z,12.52
2022-10-06T23:53:37.023Z,12.66
2022-10-06T23:56:04.551Z,12.71
2022-10-06T23:58:31.446Z,12.59
